sensor_id;sensor_type;location;lat;lon;timestamp;P1;durP1;ratioP1;P2;durP2;ratioP2
17866;SDS011;9059;49.934;8.650;2022-10-16T00:00:36;2.38;;;0.98;;
17866;SDS011;9059;49.934;8.650;2022-10-16T00:01:39;3.78;;;0.77;;
17866;SDS011;9059;49.934;8.650;2022-10-16T00:02:40;1.23;;;0.73;;
17866;SDS011;9059;49.934;8.650;2022-10-16T00:03:42;1.48;;;0.60;;
17866;SDS011;9059;49.934;8.650;2022-10-16T00:04:43;1.08;;;0.60;;
17866;SDS011;9059;49.934;8.650;2022-10-16T00:05:44;0.90;;;0.60;;
17866;SDS011;9059;49.934;8.650;2022-10-16T00:06:45;2.55;;;0.80;;
17866;SDS011;9059;49.934;8.650;2022-10-16T00:07:47;8.85;;;1.73;;
17866;SDS011;9059;49.934;8.650;2022-10-16T00:08:48;6.38;;;1.00;;
17866;SDS011;9059;49.934;8.650;2022-10-16T00:09:50;2.22;;;0.80;;
17866;SDS011;9059;49.934;8.650;2022-10-16T00:10:51;1.92;;;0.60;;
17866;SDS011;9059;49.934;8.650;2022-10-16T00:11:52;0.90;;;0.50;;
17866;SDS011;9059;49.934;8.650;2022-10-16T00:12:53;2.72;;;0.65;;
17866;SDS011;9059;49.934;8.650;2022-10-16T00:13:56;1.80;;;0.77;;
17866;SDS011;9059;49.934;8.650;2022-10-16T00:14:57;3.78;;;0.63;;
17866;SDS011;9059;49.934;8.650;2022-10-16T00:16:00;3.55;;;0.77;;
17866;SDS011;9059;49.934;8.650;2022-10-16T00:17:01;1.35;;;0.70;;
17866;SDS011;9059;49.934;8.650;2022-10-16T00:18:03;1.35;;;0.80;;
17866;SDS011;9059;49.934;8.650;2022-10-16T00:19:04;1.50;;;0.70;;
17866;SDS011;9059;49.934;8.650;2022-10-16T00:20:07;1.42;;;0.60;;
17866;SDS011;9059;49.934;8.650;2022-10-16T00:21:09;1.00;;;0.57;;
17866;SDS011;9059;49.934;8.650;2022-10-16T00:22:11;1.55;;;0.63;;
17866;SDS011;9059;49.934;8.650;2022-10-16T00:23:12;1.13;;;0.77;;
17866;SDS011;9059;49.934;8.650;2022-10-16T00:24:14;2.50;;;0.55;;
17866;SDS011;9059;49.934;8.650;2022-10-16T00:25:16;0.80;;;0.50;;
17866;SDS011;9059;49.934;8.650;2022-10-16T00:26:17;2.63;;;0.60;;
17866;SDS011;9059;49.934;8.650;2022-10-16T00:27:19;2.10;;;0.65;;
17866;SDS011;9059;49.934;8.650;2022-10-16T00:28:20;2.85;;;0.70;;
17866;SDS011;9059;49.934;8.650;2022-10-16T00:29:21;3.47;;;0.80;;
17866;SDS011;9059;49.934;8.650;2022-10-16T00:30:23;1.60;;;0.60;;
17866;SDS011;9059;49.934;8.650;2022-10-16T00:31:25;5.10;;;0.77;;
17866;SDS011;9059;49.934;8.650;2022-10-16T00:32:27;2.70;;;1.35;;
17866;SDS011;9059;49.934;8.650;2022-10-16T00:33:28;1.75;;;0.70;;
17866;SDS011;9059;49.934;8.650;2022-10-16T00:34:29;1.33;;;0.70;;
17866;SDS011;9059;49.934;8.650;2022-10-16T00:35:30;2.33;;;0.70;;
17866;SDS011;9059;49.934;8.650;2022-10-16T00:36:32;2.25;;;0.70;;
17866;SDS011;9059;49.934;8.650;2022-10-16T00:37:32;4.75;;;0.70;;
17866;SDS011;9059;49.934;8.650;2022-10-16T00:38:34;1.52;;;0.60;;
17866;SDS011;9059;49.934;8.650;2022-10-16T00:39:35;4.22;;;0.70;;
17866;SDS011;9059;49.934;8.650;2022-10-16T00:40:37;1.10;;;0.70;;
17866;SDS011;9059;49.934;8.650;2022-10-16T00:41:37;1.35;;;0.70;;
17866;SDS011;9059;49.934;8.650;2022-10-16T00:42:39;0.60;;;0.55;;
17866;SDS011;9059;49.934;8.650;2022-10-16T00:43:40;5.75;;;0.65;;
17866;SDS011;9059;49.934;8.650;2022-10-16T00:44:45;1.77;;;0.90;;
17866;SDS011;9059;49.934;8.650;2022-10-16T00:45:50;0.73;;;0.55;;
17866;SDS011;9059;49.934;8.650;2022-10-16T00:46:53;2.97;;;0.73;;
17866;SDS011;9059;49.934;8.650;2022-10-16T00:47:54;1.77;;;0.70;;
17866;SDS011;9059;49.934;8.650;2022-10-16T00:48:57;1.80;;;0.95;;
17866;SDS011;9059;49.934;8.650;2022-10-16T00:50:02;1.70;;;0.52;;
17866;SDS011;9059;49.934;8.650;2022-10-16T00:51:08;1.55;;;0.60;;
17866;SDS011;9059;49.934;8.650;2022-10-16T00:52:08;5.13;;;0.70;;
17866;SDS011;9059;49.934;8.650;2022-10-16T00:53:11;1.88;;;0.60;;
17866;SDS011;9059;49.934;8.650;2022-10-16T00:54:13;2.88;;;0.40;;
17866;SDS011;9059;49.934;8.650;2022-10-16T00:55:16;2.75;;;0.70;;
17866;SDS011;9059;49.934;8.650;2022-10-16T00:56:17;0.90;;;0.55;;
17866;SDS011;9059;49.934;8.650;2022-10-16T00:57:19;2.78;;;0.47;;
17866;SDS011;9059;49.934;8.650;2022-10-16T00:58:20;1.13;;;0.70;;
17866;SDS011;9059;49.934;8.650;2022-10-16T00:59:23;1.23;;;0.63;;
17866;SDS011;9059;49.934;8.650;2022-10-16T01:00:26;3.42;;;0.43;;
17866;SDS011;9059;49.934;8.650;2022-10-16T01:01:27;0.80;;;0.50;;
17866;SDS011;9059;49.934;8.650;2022-10-16T01:02:30;1.23;;;0.50;;
17866;SDS011;9059;49.934;8.650;2022-10-16T01:03:32;2.00;;;0.60;;
17866;SDS011;9059;49.934;8.650;2022-10-16T01:04:34;0.85;;;0.55;;
17866;SDS011;9059;49.934;8.650;2022-10-16T01:05:38;1.05;;;0.50;;
17866;SDS011;9059;49.934;8.650;2022-10-16T01:06:44;1.65;;;0.52;;
17866;SDS011;9059;49.934;8.650;2022-10-16T01:07:50;1.50;;;0.50;;
17866;SDS011;9059;49.934;8.650;2022-10-16T01:08:58;1.10;;;0.50;;
17866;SDS011;9059;49.934;8.650;2022-10-16T01:10:11;3.00;;;0.43;;
17866;SDS011;9059;49.934;8.650;2022-10-16T01:11:19;1.15;;;0.43;;
17866;SDS011;9059;49.934;8.650;2022-10-16T01:12:26;0.73;;;0.45;;
17866;SDS011;9059;49.934;8.650;2022-10-16T01:13:35;0.98;;;0.40;;
17866;SDS011;9059;49.934;8.650;2022-10-16T01:14:40;1.13;;;0.43;;
17866;SDS011;9059;49.934;8.650;2022-10-16T01:15:44;1.75;;;0.50;;
17866;SDS011;9059;49.934;8.650;2022-10-16T01:16:49;1.75;;;0.38;;
17866;SDS011;9059;49.934;8.650;2022-10-16T01:17:57;0.90;;;0.50;;
17866;SDS011;9059;49.934;8.650;2022-10-16T01:19:02;1.95;;;0.30;;
17866;SDS011;9059;49.934;8.650;2022-10-16T01:20:10;2.20;;;0.45;;
17866;SDS011;9059;49.934;8.650;2022-10-16T01:21:16;0.65;;;0.40;;
17866;SDS011;9059;49.934;8.650;2022-10-16T01:22:21;1.48;;;0.30;;
17866;SDS011;9059;49.934;8.650;2022-10-16T01:23:28;0.30;;;0.30;;
17866;SDS011;9059;49.934;8.650;2022-10-16T01:24:38;0.30;;;0.30;;
17866;SDS011;9059;49.934;8.650;2022-10-16T01:25:58;0.60;;;0.30;;
17866;SDS011;9059;49.934;8.650;2022-10-16T01:27:08;3.50;;;0.30;;
17866;SDS011;9059;49.934;8.650;2022-10-16T01:28:11;0.98;;;0.30;;
17866;SDS011;9059;49.934;8.650;2022-10-16T01:29:13;0.50;;;0.20;;
17866;SDS011;9059;49.934;8.650;2022-10-16T01:30:17;0.28;;;0.15;;
17866;SDS011;9059;49.934;8.650;2022-10-16T01:31:21;0.15;;;0.15;;
17866;SDS011;9059;49.934;8.650;2022-10-16T01:32:28;0.20;;;0.20;;
17866;SDS011;9059;49.934;8.650;2022-10-16T01:33:33;1.08;;;0.38;;
17866;SDS011;9059;49.934;8.650;2022-10-16T01:34:38;0.85;;;0.30;;
17866;SDS011;9059;49.934;8.650;2022-10-16T01:35:43;0.90;;;0.22;;
17866;SDS011;9059;49.934;8.650;2022-10-16T01:36:59;0.77;;;0.30;;
17866;SDS011;9059;49.934;8.650;2022-10-16T01:38:03;0.20;;;0.20;;
17866;SDS011;9059;49.934;8.650;2022-10-16T01:39:08;2.47;;;0.32;;
17866;SDS011;9059;49.934;8.650;2022-10-16T01:40:11;1.85;;;0.30;;
17866;SDS011;9059;49.934;8.650;2022-10-16T01:41:14;0.52;;;0.20;;
17866;SDS011;9059;49.934;8.650;2022-10-16T01:42:19;0.20;;;0.20;;
17866;SDS011;9059;49.934;8.650;2022-10-16T01:43:24;0.52;;;0.32;;
17866;SDS011;9059;49.934;8.650;2022-10-16T01:44:26;0.20;;;0.20;;
17866;SDS011;9059;49.934;8.650;2022-10-16T01:45:31;1.02;;;0.32;;
17866;SDS011;9059;49.934;8.650;2022-10-16T01:46:32;3.10;;;0.38;;
17866;SDS011;9059;49.934;8.650;2022-10-16T01:47:35;0.30;;;0.25;;
17866;SDS011;9059;49.934;8.650;2022-10-16T01:48:36;1.20;;;0.30;;
17866;SDS011;9059;49.934;8.650;2022-10-16T01:49:38;2.28;;;0.25;;
17866;SDS011;9059;49.934;8.650;2022-10-16T01:50:39;2.88;;;0.30;;
17866;SDS011;9059;49.934;8.650;2022-10-16T01:51:43;0.22;;;0.20;;
17866;SDS011;9059;49.934;8.650;2022-10-16T01:52:47;1.25;;;0.20;;
17866;SDS011;9059;49.934;8.650;2022-10-16T01:53:50;0.40;;;0.20;;
17866;SDS011;9059;49.934;8.650;2022-10-16T01:54:54;3.40;;;0.32;;
17866;SDS011;9059;49.934;8.650;2022-10-16T01:55:56;0.50;;;0.30;;
17866;SDS011;9059;49.934;8.650;2022-10-16T01:56:59;0.98;;;0.28;;
17866;SDS011;9059;49.934;8.650;2022-10-16T01:58:02;12.57;;;0.70;;
17866;SDS011;9059;49.934;8.650;2022-10-16T01:59:05;1.35;;;0.30;;
17866;SDS011;9059;49.934;8.650;2022-10-16T02:00:09;0.15;;;0.15;;
17866;SDS011;9059;49.934;8.650;2022-10-16T02:01:15;1.60;;;0.40;;
17866;SDS011;9059;49.934;8.650;2022-10-16T02:02:18;1.05;;;0.30;;
17866;SDS011;9059;49.934;8.650;2022-10-16T02:03:20;0.30;;;0.30;;
17866;SDS011;9059;49.934;8.650;2022-10-16T02:04:23;1.88;;;0.28;;
17866;SDS011;9059;49.934;8.650;2022-10-16T02:05:26;2.40;;;0.40;;
17866;SDS011;9059;49.934;8.650;2022-10-16T02:06:31;0.47;;;0.20;;
17866;SDS011;9059;49.934;8.650;2022-10-16T02:07:32;0.38;;;0.30;;
17866;SDS011;9059;49.934;8.650;2022-10-16T02:08:34;4.07;;;0.30;;
17866;SDS011;9059;49.934;8.650;2022-10-16T02:09:35;0.40;;;0.22;;
17866;SDS011;9059;49.934;8.650;2022-10-16T02:10:37;0.65;;;0.35;;
17866;SDS011;9059;49.934;8.650;2022-10-16T02:11:39;1.63;;;0.30;;
17866;SDS011;9059;49.934;8.650;2022-10-16T02:12:41;7.00;;;0.40;;
17866;SDS011;9059;49.934;8.650;2022-10-16T02:13:46;0.45;;;0.30;;
17866;SDS011;9059;49.934;8.650;2022-10-16T02:14:50;0.60;;;0.30;;
17866;SDS011;9059;49.934;8.650;2022-10-16T02:15:50;1.13;;;0.30;;
17866;SDS011;9059;49.934;8.650;2022-10-16T02:16:54;0.60;;;0.28;;
17866;SDS011;9059;49.934;8.650;2022-10-16T02:17:55;0.50;;;0.40;;
17866;SDS011;9059;49.934;8.650;2022-10-16T02:18:58;1.48;;;0.38;;
17866;SDS011;9059;49.934;8.650;2022-10-16T02:19:59;3.67;;;0.43;;
17866;SDS011;9059;49.934;8.650;2022-10-16T02:21:02;3.95;;;0.43;;
17866;SDS011;9059;49.934;8.650;2022-10-16T02:22:08;2.40;;;0.40;;
17866;SDS011;9059;49.934;8.650;2022-10-16T02:23:12;0.50;;;0.50;;
17866;SDS011;9059;49.934;8.650;2022-10-16T02:24:19;0.55;;;0.40;;
17866;SDS011;9059;49.934;8.650;2022-10-16T02:25:25;2.85;;;0.40;;
17866;SDS011;9059;49.934;8.650;2022-10-16T02:26:30;0.85;;;0.50;;
17866;SDS011;9059;49.934;8.650;2022-10-16T02:27:34;0.35;;;0.30;;
17866;SDS011;9059;49.934;8.650;2022-10-16T02:28:41;5.25;;;0.50;;
17866;SDS011;9059;49.934;8.650;2022-10-16T02:29:46;2.58;;;0.60;;
17866;SDS011;9059;49.934;8.650;2022-10-16T02:30:50;2.13;;;0.40;;
17866;SDS011;9059;49.934;8.650;2022-10-16T02:31:53;2.40;;;0.38;;
17866;SDS011;9059;49.934;8.650;2022-10-16T02:32:57;2.58;;;0.60;;
17866;SDS011;9059;49.934;8.650;2022-10-16T02:33:59;0.85;;;0.60;;
17866;SDS011;9059;49.934;8.650;2022-10-16T02:35:01;1.10;;;0.52;;
17866;SDS011;9059;49.934;8.650;2022-10-16T02:36:03;1.75;;;0.63;;
17866;SDS011;9059;49.934;8.650;2022-10-16T02:37:05;0.52;;;0.40;;
17866;SDS011;9059;49.934;8.650;2022-10-16T02:38:06;0.52;;;0.43;;
17866;SDS011;9059;49.934;8.650;2022-10-16T02:39:09;4.13;;;0.50;;
17866;SDS011;9059;49.934;8.650;2022-10-16T02:40:11;3.72;;;0.90;;
17866;SDS011;9059;49.934;8.650;2022-10-16T02:41:13;1.42;;;0.50;;
17866;SDS011;9059;49.934;8.650;2022-10-16T02:42:15;0.80;;;0.43;;
17866;SDS011;9059;49.934;8.650;2022-10-16T02:43:19;0.70;;;0.30;;
17866;SDS011;9059;49.934;8.650;2022-10-16T02:44:19;2.65;;;0.55;;
17866;SDS011;9059;49.934;8.650;2022-10-16T02:45:22;3.58;;;0.60;;
17866;SDS011;9059;49.934;8.650;2022-10-16T02:46:23;0.68;;;0.50;;
17866;SDS011;9059;49.934;8.650;2022-10-16T02:47:25;0.68;;;0.45;;
17866;SDS011;9059;49.934;8.650;2022-10-16T02:48:26;5.50;;;0.50;;
17866;SDS011;9059;49.934;8.650;2022-10-16T02:49:27;2.58;;;0.40;;
17866;SDS011;9059;49.934;8.650;2022-10-16T02:50:28;0.93;;;0.50;;
17866;SDS011;9059;49.934;8.650;2022-10-16T02:51:30;3.33;;;0.57;;
17866;SDS011;9059;49.934;8.650;2022-10-16T02:52:30;3.75;;;0.70;;
17866;SDS011;9059;49.934;8.650;2022-10-16T02:53:32;2.88;;;0.80;;
17866;SDS011;9059;49.934;8.650;2022-10-16T02:54:32;0.88;;;0.50;;
17866;SDS011;9059;49.934;8.650;2022-10-16T02:55:34;2.72;;;0.60;;
17866;SDS011;9059;49.934;8.650;2022-10-16T02:56:35;1.63;;;0.50;;
17866;SDS011;9059;49.934;8.650;2022-10-16T02:57:36;2.08;;;0.40;;
17866;SDS011;9059;49.934;8.650;2022-10-16T02:58:38;2.30;;;0.93;;
17866;SDS011;9059;49.934;8.650;2022-10-16T02:59:40;5.18;;;0.70;;
17866;SDS011;9059;49.934;8.650;2022-10-16T03:00:42;2.05;;;0.60;;
17866;SDS011;9059;49.934;8.650;2022-10-16T03:01:43;0.98;;;0.60;;
17866;SDS011;9059;49.934;8.650;2022-10-16T03:02:44;1.55;;;0.57;;
17866;SDS011;9059;49.934;8.650;2022-10-16T03:03:46;0.52;;;0.32;;
17866;SDS011;9059;49.934;8.650;2022-10-16T03:04:47;4.65;;;0.63;;
17866;SDS011;9059;49.934;8.650;2022-10-16T03:05:49;1.17;;;0.60;;
17866;SDS011;9059;49.934;8.650;2022-10-16T03:06:50;1.92;;;0.80;;
17866;SDS011;9059;49.934;8.650;2022-10-16T03:07:52;3.90;;;0.57;;
17866;SDS011;9059;49.934;8.650;2022-10-16T03:08:52;4.47;;;0.90;;
17866;SDS011;9059;49.934;8.650;2022-10-16T03:09:54;1.83;;;0.70;;
17866;SDS011;9059;49.934;8.650;2022-10-16T03:10:55;1.52;;;0.85;;
17866;SDS011;9059;49.934;8.650;2022-10-16T03:11:57;1.92;;;0.80;;
17866;SDS011;9059;49.934;8.650;2022-10-16T03:12:58;4.35;;;0.70;;
17866;SDS011;9059;49.934;8.650;2022-10-16T03:13:59;2.40;;;0.80;;
17866;SDS011;9059;49.934;8.650;2022-10-16T03:15:00;2.85;;;0.60;;
17866;SDS011;9059;49.934;8.650;2022-10-16T03:16:03;4.13;;;0.70;;
17866;SDS011;9059;49.934;8.650;2022-10-16T03:17:04;1.98;;;0.85;;
17866;SDS011;9059;49.934;8.650;2022-10-16T03:18:06;4.47;;;0.95;;
17866;SDS011;9059;49.934;8.650;2022-10-16T03:19:06;8.82;;;1.00;;
17866;SDS011;9059;49.934;8.650;2022-10-16T03:20:08;6.13;;;0.90;;
17866;SDS011;9059;49.934;8.650;2022-10-16T03:21:09;2.20;;;0.88;;
17866;SDS011;9059;49.934;8.650;2022-10-16T03:22:11;2.42;;;0.88;;
17866;SDS011;9059;49.934;8.650;2022-10-16T03:23:13;1.40;;;0.93;;
17866;SDS011;9059;49.934;8.650;2022-10-16T03:24:14;3.30;;;0.80;;
17866;SDS011;9059;49.934;8.650;2022-10-16T03:25:15;3.58;;;0.80;;
17866;SDS011;9059;49.934;8.650;2022-10-16T03:26:17;3.53;;;0.80;;
17866;SDS011;9059;49.934;8.650;2022-10-16T03:27:18;2.72;;;0.93;;
17866;SDS011;9059;49.934;8.650;2022-10-16T03:28:20;0.93;;;0.70;;
17866;SDS011;9059;49.934;8.650;2022-10-16T03:29:20;7.72;;;0.77;;
17866;SDS011;9059;49.934;8.650;2022-10-16T03:30:22;3.30;;;0.70;;
17866;SDS011;9059;49.934;8.650;2022-10-16T03:31:24;2.28;;;0.75;;
17866;SDS011;9059;49.934;8.650;2022-10-16T03:32:26;3.72;;;0.80;;
17866;SDS011;9059;49.934;8.650;2022-10-16T03:33:28;2.63;;;0.60;;
17866;SDS011;9059;49.934;8.650;2022-10-16T03:34:30;2.72;;;0.70;;
17866;SDS011;9059;49.934;8.650;2022-10-16T03:35:31;3.50;;;0.70;;
17866;SDS011;9059;49.934;8.650;2022-10-16T03:36:33;2.33;;;0.80;;
17866;SDS011;9059;49.934;8.650;2022-10-16T03:37:35;4.53;;;0.93;;
17866;SDS011;9059;49.934;8.650;2022-10-16T03:38:36;1.73;;;0.80;;
17866;SDS011;9059;49.934;8.650;2022-10-16T03:39:37;1.63;;;0.95;;
17866;SDS011;9059;49.934;8.650;2022-10-16T03:40:38;4.88;;;0.90;;
17866;SDS011;9059;49.934;8.650;2022-10-16T03:41:40;1.30;;;0.82;;
17866;SDS011;9059;49.934;8.650;2022-10-16T03:42:41;1.85;;;0.75;;
17866;SDS011;9059;49.934;8.650;2022-10-16T03:43:43;1.98;;;0.80;;
17866;SDS011;9059;49.934;8.650;2022-10-16T03:44:44;0.88;;;0.70;;
17866;SDS011;9059;49.934;8.650;2022-10-16T03:45:45;1.30;;;0.77;;
17866;SDS011;9059;49.934;8.650;2022-10-16T03:46:47;2.92;;;0.73;;
17866;SDS011;9059;49.934;8.650;2022-10-16T03:47:49;3.50;;;0.70;;
17866;SDS011;9059;49.934;8.650;2022-10-16T03:48:49;1.50;;;0.52;;
17866;SDS011;9059;49.934;8.650;2022-10-16T03:49:51;1.75;;;0.65;;
17866;SDS011;9059;49.934;8.650;2022-10-16T03:50:52;2.90;;;0.80;;
17866;SDS011;9059;49.934;8.650;2022-10-16T03:51:55;4.18;;;0.70;;
17866;SDS011;9059;49.934;8.650;2022-10-16T03:52:55;4.05;;;0.70;;
17866;SDS011;9059;49.934;8.650;2022-10-16T03:53:57;2.75;;;0.80;;
17866;SDS011;9059;49.934;8.650;2022-10-16T03:54:58;2.70;;;0.60;;
17866;SDS011;9059;49.934;8.650;2022-10-16T03:55:59;3.63;;;0.70;;
17866;SDS011;9059;49.934;8.650;2022-10-16T03:57:00;1.05;;;0.63;;
17866;SDS011;9059;49.934;8.650;2022-10-16T03:58:02;1.27;;;0.70;;
17866;SDS011;9059;49.934;8.650;2022-10-16T03:59:02;0.93;;;0.60;;
17866;SDS011;9059;49.934;8.650;2022-10-16T04:00:04;3.58;;;0.88;;
17866;SDS011;9059;49.934;8.650;2022-10-16T04:01:12;1.45;;;0.77;;
17866;SDS011;9059;49.934;8.650;2022-10-16T04:02:15;1.50;;;0.68;;
17866;SDS011;9059;49.934;8.650;2022-10-16T04:03:15;1.35;;;0.80;;
17866;SDS011;9059;49.934;8.650;2022-10-16T04:04:19;2.45;;;0.80;;
17866;SDS011;9059;49.934;8.650;2022-10-16T04:05:20;1.75;;;0.70;;
17866;SDS011;9059;49.934;8.650;2022-10-16T04:06:22;1.35;;;0.70;;
17866;SDS011;9059;49.934;8.650;2022-10-16T04:07:22;1.95;;;0.65;;
17866;SDS011;9059;49.934;8.650;2022-10-16T04:08:24;0.95;;;0.70;;
17866;SDS011;9059;49.934;8.650;2022-10-16T04:09:25;1.52;;;0.50;;
17866;SDS011;9059;49.934;8.650;2022-10-16T04:10:26;1.13;;;0.70;;
17866;SDS011;9059;49.934;8.650;2022-10-16T04:11:27;0.80;;;0.50;;
17866;SDS011;9059;49.934;8.650;2022-10-16T04:12:29;1.17;;;0.70;;
17866;SDS011;9059;49.934;8.650;2022-10-16T04:13:29;6.68;;;1.08;;
17866;SDS011;9059;49.934;8.650;2022-10-16T04:14:31;5.13;;;0.75;;
17866;SDS011;9059;49.934;8.650;2022-10-16T04:15:32;2.85;;;0.70;;
17866;SDS011;9059;49.934;8.650;2022-10-16T04:16:33;1.70;;;0.77;;
17866;SDS011;9059;49.934;8.650;2022-10-16T04:17:36;1.05;;;0.70;;
17866;SDS011;9059;49.934;8.650;2022-10-16T04:18:37;4.78;;;1.00;;
17866;SDS011;9059;49.934;8.650;2022-10-16T04:19:38;7.35;;;0.70;;
17866;SDS011;9059;49.934;8.650;2022-10-16T04:20:40;2.47;;;0.80;;
17866;SDS011;9059;49.934;8.650;2022-10-16T04:21:41;1.33;;;0.75;;
17866;SDS011;9059;49.934;8.650;2022-10-16T04:22:42;2.50;;;0.75;;
17866;SDS011;9059;49.934;8.650;2022-10-16T04:23:43;2.20;;;0.70;;
17866;SDS011;9059;49.934;8.650;2022-10-16T04:24:45;3.17;;;0.70;;
17866;SDS011;9059;49.934;8.650;2022-10-16T04:25:45;3.25;;;1.00;;
17866;SDS011;9059;49.934;8.650;2022-10-16T04:26:47;4.25;;;0.90;;
17866;SDS011;9059;49.934;8.650;2022-10-16T04:27:48;2.20;;;0.80;;
17866;SDS011;9059;49.934;8.650;2022-10-16T04:28:49;2.63;;;0.90;;
17866;SDS011;9059;49.934;8.650;2022-10-16T04:29:50;1.67;;;1.10;;
17866;SDS011;9059;49.934;8.650;2022-10-16T04:30:52;4.47;;;1.10;;
17866;SDS011;9059;49.934;8.650;2022-10-16T04:31:52;1.83;;;1.02;;
17866;SDS011;9059;49.934;8.650;2022-10-16T04:32:55;1.92;;;1.10;;
17866;SDS011;9059;49.934;8.650;2022-10-16T04:33:56;2.10;;;1.38;;
17866;SDS011;9059;49.934;8.650;2022-10-16T04:34:58;3.25;;;1.10;;
17866;SDS011;9059;49.934;8.650;2022-10-16T04:35:59;3.00;;;1.15;;
17866;SDS011;9059;49.934;8.650;2022-10-16T04:37:01;8.13;;;1.38;;
17866;SDS011;9059;49.934;8.650;2022-10-16T04:38:02;5.05;;;1.20;;
17866;SDS011;9059;49.934;8.650;2022-10-16T04:39:03;3.53;;;1.27;;
17866;SDS011;9059;49.934;8.650;2022-10-16T04:40:04;5.65;;;1.40;;
17866;SDS011;9059;49.934;8.650;2022-10-16T04:41:06;8.65;;;1.45;;
17866;SDS011;9059;49.934;8.650;2022-10-16T04:42:07;4.32;;;1.60;;
17866;SDS011;9059;49.934;8.650;2022-10-16T04:43:09;4.05;;;1.40;;
17866;SDS011;9059;49.934;8.650;2022-10-16T04:44:10;8.77;;;1.48;;
17866;SDS011;9059;49.934;8.650;2022-10-16T04:45:12;6.13;;;1.30;;
17866;SDS011;9059;49.934;8.650;2022-10-16T04:46:13;3.53;;;1.15;;
17866;SDS011;9059;49.934;8.650;2022-10-16T04:47:14;4.97;;;1.40;;
17866;SDS011;9059;49.934;8.650;2022-10-16T04:48:17;3.60;;;1.75;;
17866;SDS011;9059;49.934;8.650;2022-10-16T04:49:18;5.20;;;1.10;;
17866;SDS011;9059;49.934;8.650;2022-10-16T04:50:19;1.95;;;1.20;;
17866;SDS011;9059;49.934;8.650;2022-10-16T04:51:38;2.67;;;1.33;;
17866;SDS011;9059;49.934;8.650;2022-10-16T04:52:39;3.90;;;1.20;;
17866;SDS011;9059;49.934;8.650;2022-10-16T04:53:40;2.40;;;1.20;;
17866;SDS011;9059;49.934;8.650;2022-10-16T04:54:41;2.40;;;1.38;;
17866;SDS011;9059;49.934;8.650;2022-10-16T04:55:45;2.17;;;1.35;;
17866;SDS011;9059;49.934;8.650;2022-10-16T04:56:46;2.33;;;1.38;;
17866;SDS011;9059;49.934;8.650;2022-10-16T04:57:48;4.32;;;1.20;;
17866;SDS011;9059;49.934;8.650;2022-10-16T04:58:48;3.22;;;1.38;;
17866;SDS011;9059;49.934;8.650;2022-10-16T04:59:50;6.15;;;1.48;;
17866;SDS011;9059;49.934;8.650;2022-10-16T05:00:51;1.85;;;1.27;;
17866;SDS011;9059;49.934;8.650;2022-10-16T05:01:52;8.65;;;1.52;;
17866;SDS011;9059;49.934;8.650;2022-10-16T05:02:53;4.00;;;1.30;;
17866;SDS011;9059;49.934;8.650;2022-10-16T05:03:56;4.18;;;1.55;;
17866;SDS011;9059;49.934;8.650;2022-10-16T05:04:57;2.15;;;1.42;;
17866;SDS011;9059;49.934;8.650;2022-10-16T05:05:58;2.15;;;1.33;;
17866;SDS011;9059;49.934;8.650;2022-10-16T05:06:59;3.45;;;1.40;;
17866;SDS011;9059;49.934;8.650;2022-10-16T05:08:02;5.50;;;1.38;;
17866;SDS011;9059;49.934;8.650;2022-10-16T05:09:04;7.55;;;1.60;;
17866;SDS011;9059;49.934;8.650;2022-10-16T05:10:05;2.03;;;1.23;;
17866;SDS011;9059;49.934;8.650;2022-10-16T05:11:07;3.83;;;1.33;;
17866;SDS011;9059;49.934;8.650;2022-10-16T05:12:08;3.67;;;1.30;;
17866;SDS011;9059;49.934;8.650;2022-10-16T05:13:09;3.65;;;1.10;;
17866;SDS011;9059;49.934;8.650;2022-10-16T05:14:11;3.58;;;1.25;;
17866;SDS011;9059;49.934;8.650;2022-10-16T05:15:11;1.20;;;0.90;;
17866;SDS011;9059;49.934;8.650;2022-10-16T05:16:13;4.93;;;1.52;;
17866;SDS011;9059;49.934;8.650;2022-10-16T05:17:13;4.35;;;1.20;;
17866;SDS011;9059;49.934;8.650;2022-10-16T05:18:15;4.93;;;1.58;;
17866;SDS011;9059;49.934;8.650;2022-10-16T05:19:18;2.58;;;1.48;;
17866;SDS011;9059;49.934;8.650;2022-10-16T05:20:19;2.38;;;1.30;;
17866;SDS011;9059;49.934;8.650;2022-10-16T05:21:20;6.82;;;1.15;;
17866;SDS011;9059;49.934;8.650;2022-10-16T05:22:22;6.05;;;1.27;;
17866;SDS011;9059;49.934;8.650;2022-10-16T05:23:23;2.55;;;1.65;;
17866;SDS011;9059;49.934;8.650;2022-10-16T05:24:24;4.15;;;1.50;;
17866;SDS011;9059;49.934;8.650;2022-10-16T05:25:25;2.45;;;1.38;;
17866;SDS011;9059;49.934;8.650;2022-10-16T05:26:27;6.50;;;1.48;;
17866;SDS011;9059;49.934;8.650;2022-10-16T05:27:27;1.45;;;1.20;;
17866;SDS011;9059;49.934;8.650;2022-10-16T05:28:29;2.15;;;1.10;;
17866;SDS011;9059;49.934;8.650;2022-10-16T05:29:30;5.55;;;1.40;;
17866;SDS011;9059;49.934;8.650;2022-10-16T05:30:32;7.72;;;1.60;;
17866;SDS011;9059;49.934;8.650;2022-10-16T05:31:32;2.38;;;1.20;;
17866;SDS011;9059;49.934;8.650;2022-10-16T05:32:34;4.70;;;1.08;;
17866;SDS011;9059;49.934;8.650;2022-10-16T05:33:35;2.78;;;1.30;;
17866;SDS011;9059;49.934;8.650;2022-10-16T05:34:38;5.97;;;1.58;;
17866;SDS011;9059;49.934;8.650;2022-10-16T05:35:39;4.28;;;1.50;;
17866;SDS011;9059;49.934;8.650;2022-10-16T05:36:40;2.42;;;1.10;;
17866;SDS011;9059;49.934;8.650;2022-10-16T05:37:41;7.43;;;1.23;;
17866;SDS011;9059;49.934;8.650;2022-10-16T05:38:43;2.85;;;1.10;;
17866;SDS011;9059;49.934;8.650;2022-10-16T05:39:43;4.30;;;1.25;;
17866;SDS011;9059;49.934;8.650;2022-10-16T05:40:50;3.33;;;1.25;;
17866;SDS011;9059;49.934;8.650;2022-10-16T05:41:50;3.63;;;1.30;;
17866;SDS011;9059;49.934;8.650;2022-10-16T05:42:54;3.13;;;1.50;;
17866;SDS011;9059;49.934;8.650;2022-10-16T05:43:55;4.18;;;1.73;;
17866;SDS011;9059;49.934;8.650;2022-10-16T05:44:57;3.83;;;1.40;;
17866;SDS011;9059;49.934;8.650;2022-10-16T05:45:58;7.55;;;1.70;;
17866;SDS011;9059;49.934;8.650;2022-10-16T05:47:01;5.93;;;1.10;;
17866;SDS011;9059;49.934;8.650;2022-10-16T05:48:03;2.90;;;1.30;;
17866;SDS011;9059;49.934;8.650;2022-10-16T05:49:04;2.72;;;1.20;;
17866;SDS011;9059;49.934;8.650;2022-10-16T05:50:07;2.47;;;1.10;;
17866;SDS011;9059;49.934;8.650;2022-10-16T05:51:09;3.30;;;1.50;;
17866;SDS011;9059;49.934;8.650;2022-10-16T05:52:12;1.85;;;1.10;;
17866;SDS011;9059;49.934;8.650;2022-10-16T05:53:12;5.85;;;1.30;;
17866;SDS011;9059;49.934;8.650;2022-10-16T05:54:14;3.28;;;1.02;;
17866;SDS011;9059;49.934;8.650;2022-10-16T05:55:16;1.65;;;1.05;;
17866;SDS011;9059;49.934;8.650;2022-10-16T05:56:17;2.92;;;1.33;;
17866;SDS011;9059;49.934;8.650;2022-10-16T05:57:18;2.13;;;1.17;;
17866;SDS011;9059;49.934;8.650;2022-10-16T05:58:19;4.43;;;1.02;;
17866;SDS011;9059;49.934;8.650;2022-10-16T05:59:21;5.40;;;1.20;;
17866;SDS011;9059;49.934;8.650;2022-10-16T06:00:21;4.00;;;1.05;;
17866;SDS011;9059;49.934;8.650;2022-10-16T06:01:23;2.05;;;1.23;;
17866;SDS011;9059;49.934;8.650;2022-10-16T06:02:24;2.67;;;1.30;;
17866;SDS011;9059;49.934;8.650;2022-10-16T06:03:26;2.50;;;1.52;;
17866;SDS011;9059;49.934;8.650;2022-10-16T06:04:27;7.47;;;1.50;;
17866;SDS011;9059;49.934;8.650;2022-10-16T06:05:30;4.10;;;1.20;;
17866;SDS011;9059;49.934;8.650;2022-10-16T06:06:30;2.72;;;1.15;;
17866;SDS011;9059;49.934;8.650;2022-10-16T06:07:33;1.63;;;1.13;;
17866;SDS011;9059;49.934;8.650;2022-10-16T06:08:34;5.63;;;1.65;;
17866;SDS011;9059;49.934;8.650;2022-10-16T06:09:36;1.90;;;1.15;;
17866;SDS011;9059;49.934;8.650;2022-10-16T06:10:37;2.75;;;1.15;;
17866;SDS011;9059;49.934;8.650;2022-10-16T06:11:38;2.35;;;1.30;;
17866;SDS011;9059;49.934;8.650;2022-10-16T06:12:40;5.45;;;1.52;;
17866;SDS011;9059;49.934;8.650;2022-10-16T06:13:40;3.20;;;1.20;;
17866;SDS011;9059;49.934;8.650;2022-10-16T06:14:42;2.25;;;1.40;;
17866;SDS011;9059;49.934;8.650;2022-10-16T06:15:44;3.05;;;1.40;;
17866;SDS011;9059;49.934;8.650;2022-10-16T06:16:45;3.88;;;1.30;;
17866;SDS011;9059;49.934;8.650;2022-10-16T06:17:46;3.80;;;0.93;;
17866;SDS011;9059;49.934;8.650;2022-10-16T06:18:50;6.97;;;1.35;;
17866;SDS011;9059;49.934;8.650;2022-10-16T06:19:52;7.57;;;1.20;;
17866;SDS011;9059;49.934;8.650;2022-10-16T06:20:54;7.85;;;1.40;;